createdAt,value
2022-10-21T00:00:17.931Z,16.45
2022-10-21T00:02:44.860Z,24.17
2022-10-21T00:05:11.544Z,16.15
2022-10-21T00:07:38.240Z,19.08
2022-10-21T00:10:05.909Z,23.77
2022-10-21T00:12:33.127Z,23.70
2022-10-21T00:14:59.963Z,17.13
2022-10-21T00:17:26.641Z,30.85
2022-10-21T00:19:53.397Z,19.75
2022-10-21T00:22:20.007Z,21.92
2022-10-21T00:24:46.644Z,21.00
2022-10-21T00:27:13.558Z,17.70
2022-10-21T00:29:40.200Z,20.98
2022-10-21T00:32:07.115Z,19.30
2022-10-21T00:34:34.026Z,18.65
2022-10-21T00:37:00.879Z,27.83
2022-10-21T00:39:27.552Z,20.70
2022-10-21T00:41:55.315Z,21.67
2022-10-21T00:44:22.035Z,20.40
2022-10-21T00:46:56.532Z,21.30
2022-10-21T00:49:43.966Z,18.30
2022-10-21T00:52:17.900Z,17.58
2022-10-21T00:54:46.669Z,17.58
2022-10-21T00:57:13.454Z,19.00
2022-10-21T00:59:44.501Z,18.73
2022-10-21T01:02:11.325Z,16.77
2022-10-21T01:04:38.228Z,21.45
2022-10-21T01:07:05.584Z,18.67
2022-10-21T01:09:32.760Z,24.00
2022-10-21T01:12:02.079Z,24.77
2022-10-21T01:14:37.619Z,25.13
2022-10-21T01:17:44.996Z,24.02
2022-10-21T01:23:09.304Z,19.70
2022-10-21T01:25:35.967Z,20.52
2022-10-21T01:28:17.835Z,19.55
2022-10-21T01:31:05.734Z,22.58
2022-10-21T01:33:45.443Z,20.98
2022-10-21T01:36:27.236Z,28.60
2022-10-21T01:39:14.955Z,22.17
2022-10-21T01:41:46.360Z,18.25
2022-10-21T01:44:21.193Z,21.90
2022-10-21T01:46:52.361Z,20.98
2022-10-21T01:49:35.190Z,31.85
2022-10-21T01:52:03.826Z,28.13
2022-10-21T01:54:37.459Z,23.25
2022-10-21T01:57:06.499Z,24.88
2022-10-21T01:59:34.839Z,22.58
2022-10-21T02:02:04.850Z,20.00
2022-10-21T02:04:34.010Z,20.77
2022-10-21T02:07:04.059Z,23.13
2022-10-21T02:12:05.508Z,16.67
2022-10-21T02:14:39.574Z,26.80
2022-10-21T02:17:08.815Z,18.20
2022-10-21T02:19:35.493Z,23.92
2022-10-21T02:22:04.798Z,18.65
2022-10-21T02:24:47.461Z,26.75
2022-10-21T02:27:14.466Z,23.02
2022-10-21T02:29:45.109Z,23.20
2022-10-21T02:32:27.050Z,24.08
2022-10-21T02:35:08.953Z,20.50
2022-10-21T02:37:51.185Z,19.30
2022-10-21T02:40:23.995Z,17.85
2022-10-21T02:42:55.382Z,19.92
2022-10-21T02:45:22.960Z,21.45
2022-10-21T02:47:50.550Z,21.63
2022-10-21T02:50:17.311Z,20.08
2022-10-21T02:52:44.023Z,25.05
2022-10-21T02:55:10.703Z,25.00
2022-10-21T02:57:37.497Z,31.33
2022-10-21T03:00:06.351Z,25.13
2022-10-21T03:02:33.024Z,20.92
2022-10-21T03:04:59.646Z,24.73
2022-10-21T03:07:26.264Z,18.05
2022-10-21T03:09:52.860Z,27.88
2022-10-21T03:12:19.506Z,22.05
2022-10-21T03:14:46.106Z,22.35
2022-10-21T03:17:12.699Z,23.65
2022-10-21T03:19:39.280Z,27.25
2022-10-21T03:22:06.175Z,24.10
2022-10-21T03:24:32.874Z,26.73
2022-10-21T03:26:59.485Z,23.38
2022-10-21T03:29:26.130Z,23.30
2022-10-21T03:31:53.010Z,32.42
2022-10-21T03:34:19.660Z,23.20
2022-10-21T03:36:46.471Z,26.70
2022-10-21T03:39:13.487Z,30.25
2022-10-21T03:41:40.461Z,24.63
2022-10-21T03:44:07.126Z,34.28
2022-10-21T03:46:33.743Z,24.92
2022-10-21T03:49:04.413Z,29.33
2022-10-21T03:51:33.123Z,27.88
2022-10-21T03:53:59.774Z,29.85
2022-10-21T03:56:26.469Z,31.23
2022-10-21T03:58:57.799Z,36.40
2022-10-21T04:01:26.086Z,33.50
2022-10-21T04:03:53.205Z,27.90
2022-10-21T04:06:20.600Z,23.40
2022-10-21T04:08:47.643Z,31.42
2022-10-21T04:11:14.319Z,25.05
2022-10-21T04:13:40.979Z,28.83
2022-10-21T04:16:12.457Z,30.65
2022-10-21T04:18:39.111Z,29.50
2022-10-21T04:21:05.794Z,31.88
2022-10-21T04:23:32.557Z,24.80
2022-10-21T04:25:59.232Z,27.67
2022-10-21T04:28:25.985Z,26.67
2022-10-21T04:30:53.097Z,28.77
2022-10-21T04:33:19.760Z,26.85
2022-10-21T04:35:46.451Z,28.40
2022-10-21T04:38:13.114Z,30.13
2022-10-21T04:40:39.790Z,32.38
2022-10-21T04:43:06.642Z,26.13
2022-10-21T04:45:33.497Z,28.88
2022-10-21T04:48:00.106Z,27.27
2022-10-21T04:50:26.878Z,38.17
2022-10-21T04:52:53.493Z,31.13
2022-10-21T04:55:20.666Z,30.73
2022-10-21T04:57:47.327Z,39.30
2022-10-21T05:00:14.383Z,34.78
2022-10-21T05:02:41.479Z,36.85
2022-10-21T05:05:08.820Z,43.75
2022-10-21T05:07:35.453Z,35.40
2022-10-21T05:10:02.144Z,34.65
2022-10-21T05:12:28.821Z,32.95
2022-10-21T05:14:55.452Z,31.40
2022-10-21T05:17:22.088Z,39.47
2022-10-21T05:19:48.697Z,27.20
2022-10-21T05:22:15.369Z,29.13
2022-10-21T05:24:41.942Z,34.17
2022-10-21T05:27:08.586Z,26.63
2022-10-21T05:29:35.201Z,32.72
2022-10-21T05:32:01.851Z,30.45
2022-10-21T05:34:28.583Z,33.33
2022-10-21T05:36:55.245Z,34.58
2022-10-21T05:39:21.914Z,35.33
2022-10-21T05:41:49.765Z,26.92
2022-10-21T05:44:16.437Z,33.03
2022-10-21T05:46:43.020Z,30.98
2022-10-21T05:49:09.761Z,27.67
2022-10-21T05:51:39.903Z,28.77
2022-10-21T05:54:06.620Z,28.48
2022-10-21T05:56:33.415Z,25.27
2022-10-21T05:59:00.055Z,30.27
2022-10-21T06:01:27.746Z,24.05
2022-10-21T06:03:54.352Z,28.88
2022-10-21T06:06:21.454Z,44.15
2022-10-21T06:08:51.402Z,30.98
2022-10-21T06:11:19.609Z,27.77
2022-10-21T06:13:47.084Z,29.98
2022-10-21T06:16:14.209Z,25.88
2022-10-21T06:18:41.889Z,29.73
2022-10-21T06:21:08.806Z,25.63
2022-10-21T06:23:36.301Z,35.20
2022-10-21T06:26:02.879Z,29.80
2022-10-21T06:28:32.061Z,28.17
2022-10-21T06:30:58.815Z,27.40
2022-10-21T06:33:27.293Z,27.52
2022-10-21T06:35:55.072Z,25.60
2022-10-21T06:38:22.029Z,29.33
2022-10-21T06:40:48.902Z,27.77
2022-10-21T06:43:16.428Z,41.95
2022-10-21T06:45:43.619Z,33.65
2022-10-21T06:48:10.420Z,27.60
2022-10-21T06:50:38.230Z,30.25
2022-10-21T06:53:05.406Z,30.27
2022-10-21T06:55:32.304Z,25.98
2022-10-21T06:57:59.778Z,32.88
2022-10-21T07:00:26.697Z,34.33
2022-10-21T07:02:53.510Z,25.92
2022-10-21T07:05:20.505Z,29.58
2022-10-21T07:07:47.141Z,26.63
2022-10-21T07:10:13.854Z,32.22
2022-10-21T07:12:40.532Z,29.10
2022-10-21T07:15:07.582Z,27.65
2022-10-21T07:17:34.215Z,25.70
2022-10-21T07:20:00.876Z,35.63
2022-10-21T07:22:27.515Z,29.30
2022-10-21T07:24:54.317Z,29.08
2022-10-21T07:27:20.928Z,33.45
2022-10-21T07:29:47.646Z,33.03
2022-10-21T07:32:14.758Z,32.42
2022-10-21T07:34:41.420Z,29.15
2022-10-21T07:37:08.071Z,41.30
2022-10-21T07:39:35.163Z,31.85
2022-10-21T07:42:02.309Z,27.60
2022-10-21T07:44:28.994Z,25.30
2022-10-21T07:46:55.924Z,29.13
2022-10-21T07:49:23.835Z,30.92
2022-10-21T07:51:50.700Z,23.80
2022-10-21T07:54:19.014Z,22.95
2022-10-21T07:56:48.744Z,31.73
2022-10-21T07:59:16.464Z,26.45
2022-10-21T08:01:45.747Z,22.30
2022-10-21T08:04:15.808Z,25.92
2022-10-21T08:06:43.755Z,23.75
2022-10-21T08:09:10.852Z,26.38
2022-10-21T08:11:38.219Z,25.55
2022-10-21T08:14:07.103Z,26.50
2022-10-21T08:16:33.915Z,31.92
2022-10-21T08:19:01.729Z,21.67
2022-10-21T08:21:29.161Z,25.95
2022-10-21T08:23:55.750Z,22.75
2022-10-21T08:26:22.435Z,31.73
2022-10-21T08:28:49.170Z,24.58
2022-10-21T08:31:19.159Z,27.40
2022-10-21T08:33:46.674Z,29.88
2022-10-21T08:36:15.628Z,24.83
2022-10-21T08:38:42.444Z,28.75
2022-10-21T08:41:36.839Z,28.10
2022-10-21T08:44:21.781Z,22.83
2022-10-21T08:46:58.103Z,28.10
2022-10-21T08:52:04.210Z,29.83
2022-10-21T08:54:43.048Z,28.13
2022-10-21T08:57:11.904Z,27.35
2022-10-21T08:59:42.097Z,26.77
2022-10-21T09:02:24.029Z,21.83
2022-10-21T09:05:06.954Z,28.75
2022-10-21T09:07:44.572Z,22.38
2022-10-21T09:10:35.934Z,20.27
2022-10-21T09:13:12.822Z,26.65
2022-10-21T09:15:55.152Z,20.67
2022-10-21T09:18:31.910Z,22.75
2022-10-21T09:21:29.096Z,22.35
2022-10-21T09:24:11.970Z,26.17
2022-10-21T09:26:41.824Z,21.73
2022-10-21T09:29:20.936Z,21.55
2022-10-21T09:31:54.355Z,22.73
2022-10-21T09:34:31.141Z,23.60
2022-10-21T09:36:59.621Z,23.35
2022-10-21T09:39:41.972Z,20.98
2022-10-21T09:42:29.209Z,20.52
2022-10-21T09:44:59.890Z,20.75
2022-10-21T09:47:26.682Z,27.42
2022-10-21T09:50:13.805Z,23.52
2022-10-21T09:52:49.183Z,20.27
2022-10-21T09:55:16.227Z,21.60
2022-10-21T09:57:51.548Z,18.13
2022-10-21T10:00:18.415Z,36.38
2022-10-21T10:02:48.012Z,18.98
2022-10-21T10:05:33.800Z,22.02
2022-10-21T10:08:00.547Z,15.65
2022-10-21T10:10:35.627Z,21.33
2022-10-21T10:13:02.229Z,18.88
2022-10-21T10:15:35.143Z,19.00
2022-10-21T10:18:02.124Z,21.38
2022-10-21T10:20:29.324Z,21.25
2022-10-21T10:23:09.772Z,23.85
2022-10-21T10:25:39.058Z,15.50
2022-10-21T10:28:20.685Z,26.08
2022-10-21T10:30:52.503Z,18.80
2022-10-21T10:33:19.721Z,18.80
2022-10-21T10:35:51.981Z,20.38
2022-10-21T10:38:36.413Z,19.92
2022-10-21T10:41:07.258Z,21.75
2022-10-21T10:43:37.182Z,18.80
2022-10-21T10:46:07.324Z,20.35
2022-10-21T10:48:34.960Z,18.83
2022-10-21T10:51:07.382Z,23.73
2022-10-21T10:53:38.504Z,21.02
2022-10-21T10:56:10.973Z,24.95
2022-10-21T10:58:42.580Z,22.33
2022-10-21T11:01:17.238Z,20.83
2022-10-21T11:03:52.067Z,19.02
2022-10-21T11:06:27.737Z,22.45
2022-10-21T11:08:57.665Z,26.25
2022-10-21T11:11:30.813Z,20.55
2022-10-21T11:13:57.842Z,19.13
2022-10-21T11:17:00.020Z,20.83
2022-10-21T11:19:58.022Z,19.13
2022-10-21T11:22:32.286Z,19.40
2022-10-21T11:25:18.574Z,20.15
2022-10-21T11:27:53.602Z,18.50
2022-10-21T11:30:23.864Z,20.77
2022-10-21T11:33:21.056Z,17.48
2022-10-21T11:35:48.655Z,16.85
2022-10-21T11:38:45.912Z,22.67
2022-10-21T11:44:26.078Z,21.33
2022-10-21T11:47:09.225Z,22.23
2022-10-21T11:50:03.640Z,22.65
2022-10-21T11:52:46.647Z,20.60
2022-10-21T11:55:21.451Z,23.27
2022-10-21T11:57:54.402Z,21.58
2022-10-21T12:00:24.691Z,25.20
2022-10-21T12:03:26.593Z,21.73
2022-10-21T12:06:00.099Z,24.60
2022-10-21T12:08:30.564Z,21.35
2022-10-21T12:11:05.288Z,23.17
2022-10-21T12:13:39.994Z,22.60
2022-10-21T12:16:10.462Z,21.02
2022-10-21T12:18:43.951Z,24.08
2022-10-21T12:21:16.439Z,22.42
2022-10-21T12:23:44.692Z,27.05
2022-10-21T12:26:24.574Z,21.15
2022-10-21T12:29:11.871Z,25.27
2022-10-21T12:31:39.774Z,25.08
2022-10-21T12:34:10.289Z,20.90
2022-10-21T12:36:40.305Z,18.80
2022-10-21T12:39:16.152Z,21.30
2022-10-21T12:41:46.123Z,20.33
2022-10-21T12:44:17.818Z,18.95
2022-10-21T12:46:46.933Z,22.45
2022-10-21T12:49:21.354Z,25.67
2022-10-21T12:52:06.346Z,22.52
2022-10-21T12:54:40.686Z,24.30
2022-10-21T12:57:11.692Z,23.58
2022-10-21T12:59:42.353Z,28.13
2022-10-21T13:02:21.307Z,27.35
2022-10-21T13:04:52.289Z,22.38
2022-10-21T13:07:19.458Z,26.08
2022-10-21T13:10:07.568Z,23.05
2022-10-21T13:12:34.198Z,29.15
2022-10-21T13:15:22.331Z,22.40
2022-10-21T13:17:51.930Z,24.98
2022-10-21T13:20:19.535Z,18.08
2022-10-21T13:22:49.674Z,29.58
2022-10-21T13:25:16.464Z,23.25
2022-10-21T13:27:48.650Z,24.38
2022-10-21T13:30:33.830Z,22.63
2022-10-21T13:33:01.983Z,21.67
2022-10-21T13:35:44.231Z,23.67
2022-10-21T13:38:30.780Z,22.13
2022-10-21T13:40:58.346Z,26.35
2022-10-21T13:43:29.267Z,27.25
2022-10-21T13:46:07.123Z,20.98
2022-10-21T13:48:45.711Z,24.77
2022-10-21T13:51:29.953Z,27.50
2022-10-21T13:54:04.091Z,21.85
2022-10-21T13:56:33.483Z,19.17
2022-10-21T13:59:01.298Z,29.25
2022-10-21T14:01:31.423Z,23.00
2022-10-21T14:04:15.568Z,30.52
2022-10-21T14:06:47.409Z,27.27
2022-10-21T14:09:27.855Z,22.17
2022-10-21T14:12:04.946Z,25.38
2022-10-21T14:14:33.807Z,24.48
2022-10-21T14:17:03.250Z,25.73
2022-10-21T14:19:33.039Z,24.98
2022-10-21T14:22:01.578Z,27.98
2022-10-21T14:24:34.788Z,28.92
2022-10-21T14:27:02.577Z,21.63
2022-10-21T14:29:33.173Z,25.17
2022-10-21T14:32:00.355Z,21.20
2022-10-21T14:34:30.050Z,21.50
2022-10-21T14:37:04.747Z,25.15
2022-10-21T14:39:34.512Z,30.33
2022-10-21T14:42:06.348Z,21.75
2022-10-21T14:44:33.140Z,22.98
2022-10-21T14:47:00.394Z,25.88
2022-10-21T14:49:32.052Z,21.75
2022-10-21T14:52:05.954Z,25.70
2022-10-21T14:54:45.973Z,22.30
2022-10-21T14:57:43.197Z,28.27
2022-10-21T15:00:30.419Z,30.05
2022-10-21T15:02:59.109Z,22.20
2022-10-21T15:05:48.544Z,28.45
2022-10-21T15:08:32.391Z,28.40
2022-10-21T15:11:15.705Z,26.13
2022-10-21T15:13:57.270Z,22.50
2022-10-21T15:16:27.842Z,22.98
2022-10-21T15:18:54.931Z,21.52
2022-10-21T15:21:45.853Z,26.00
2022-10-21T15:24:33.851Z,16.70
2022-10-21T15:27:01.917Z,25.50
2022-10-21T15:29:33.723Z,21.23
2022-10-21T15:32:01.294Z,24.70
2022-10-21T15:34:28.050Z,26.08
2022-10-21T15:36:55.258Z,64.97
2022-10-21T15:39:21.950Z,117.90
2022-10-21T15:41:53.626Z,51.88
2022-10-21T15:44:26.702Z,59.72
2022-10-21T15:46:59.275Z,56.75
2022-10-21T15:49:31.369Z,51.63
2022-10-21T15:51:57.969Z,44.10
2022-10-21T15:54:24.742Z,41.95
2022-10-21T15:56:53.579Z,28.33
2022-10-21T15:59:24.750Z,33.58
2022-10-21T16:01:52.175Z,27.58
2022-10-21T16:04:19.435Z,29.67
2022-10-21T16:06:48.868Z,23.38
2022-10-21T16:09:21.032Z,26.02
2022-10-21T16:11:58.931Z,22.85
2022-10-21T16:14:29.624Z,25.58
2022-10-21T16:17:01.075Z,21.88
2022-10-21T16:19:29.351Z,30.35
2022-10-21T16:21:56.374Z,26.55
2022-10-21T16:24:23.224Z,31.92
2022-10-21T16:26:50.358Z,28.17
2022-10-21T16:31:51.202Z,25.58
2022-10-21T16:34:18.496Z,27.20
2022-10-21T16:36:45.125Z,26.40
2022-10-21T16:39:18.303Z,27.40
2022-10-21T16:41:45.157Z,27.75
2022-10-21T16:44:11.879Z,26.58
2022-10-21T16:46:41.970Z,31.52
2022-10-21T16:49:13.205Z,28.83
2022-10-21T16:51:41.786Z,32.80
2022-10-21T16:54:08.651Z,31.77
2022-10-21T16:56:35.281Z,39.03
2022-10-21T16:59:01.902Z,31.48
2022-10-21T17:01:28.612Z,34.45
2022-10-21T17:03:55.528Z,37.70
2022-10-21T17:06:24.865Z,37.30
2022-10-21T17:08:53.655Z,37.90
2022-10-21T17:11:25.297Z,47.63
2022-10-21T17:13:53.130Z,45.47
2022-10-21T17:16:20.360Z,48.05
2022-10-21T17:18:48.213Z,34.40
2022-10-21T17:21:32.406Z,32.30
2022-10-21T17:24:01.369Z,36.03
2022-10-21T17:26:30.223Z,33.42
2022-10-21T17:28:58.158Z,41.92
2022-10-21T17:31:27.349Z,30.63
2022-10-21T17:33:56.698Z,24.33
2022-10-21T17:36:23.445Z,32.58
2022-10-21T17:38:50.223Z,35.95
2022-10-21T17:41:20.347Z,37.92
2022-10-21T17:43:47.842Z,48.95
2022-10-21T17:46:20.408Z,44.58
2022-10-21T17:48:51.907Z,53.70
2022-10-21T17:51:19.090Z,41.08
2022-10-21T17:53:49.898Z,37.30
2022-10-21T17:56:20.470Z,34.42
2022-10-21T17:58:51.654Z,38.72
2022-10-21T18:01:18.371Z,36.25
2022-10-21T18:03:45.350Z,35.90
2022-10-21T18:06:13.895Z,33.38
2022-10-21T18:08:41.097Z,33.70
2022-10-21T18:11:12.703Z,38.42
2022-10-21T18:13:43.188Z,36.53
2022-10-21T18:16:14.130Z,38.50
2022-10-21T18:21:11.768Z,34.53
2022-10-21T18:23:40.470Z,37.80
2022-10-21T18:26:11.125Z,28.75
2022-10-21T18:28:37.804Z,34.20
2022-10-21T18:31:06.026Z,28.95
2022-10-21T18:33:33.320Z,38.63
2022-10-21T18:36:09.812Z,35.10
2022-10-21T18:38:36.759Z,33.50
2022-10-21T18:41:18.905Z,36.50
2022-10-21T18:43:49.855Z,35.55
2022-10-21T18:46:16.998Z,34.50
2022-10-21T18:48:43.598Z,40.70
2022-10-21T18:51:12.706Z,33.55
2022-10-21T18:53:39.842Z,36.38
2022-10-21T18:56:08.633Z,34.10
2022-10-21T18:58:36.424Z,33.47
2022-10-21T19:01:03.774Z,35.63
2022-10-21T19:03:30.755Z,34.83
2022-10-21T19:05:57.769Z,31.30
2022-10-21T19:08:24.458Z,37.10
2022-10-21T19:10:51.095Z,34.88
2022-10-21T19:13:17.749Z,37.90
2022-10-21T19:15:44.421Z,37.65
2022-10-21T19:18:11.903Z,36.15
2022-10-21T19:20:40.141Z,36.00
2022-10-21T19:23:07.655Z,42.40
2022-10-21T19:25:34.406Z,35.67
2022-10-21T19:28:01.071Z,39.72
2022-10-21T19:30:27.744Z,40.75
2022-10-21T19:32:54.388Z,35.45
2022-10-21T19:35:21.103Z,35.65
2022-10-21T19:37:47.700Z,38.10
2022-10-21T19:40:14.351Z,38.95
2022-10-21T19:42:41.805Z,35.33
2022-10-21T19:45:10.558Z,31.80
2022-10-21T19:47:37.899Z,33.33
2022-10-21T19:50:04.952Z,33.67
2022-10-21T19:52:31.621Z,38.13
2022-10-21T19:54:58.167Z,36.83
2022-10-21T19:57:24.852Z,36.22
2022-10-21T19:59:51.439Z,34.17
2022-10-21T20:02:18.208Z,39.53
2022-10-21T20:04:44.887Z,37.42
2022-10-21T20:07:11.671Z,39.15
2022-10-21T20:09:40.737Z,41.55
2022-10-21T20:12:07.343Z,39.28
2022-10-21T20:14:33.955Z,38.33
2022-10-21T20:17:00.515Z,34.70
2022-10-21T20:19:27.131Z,47.03
2022-10-21T20:21:53.865Z,39.08
2022-10-21T20:24:20.438Z,35.53
2022-10-21T20:26:51.103Z,35.22
2022-10-21T20:29:18.983Z,35.83
2022-10-21T20:31:46.444Z,38.67
2022-10-21T20:34:13.823Z,33.05
2022-10-21T20:36:40.447Z,32.47
2022-10-21T20:39:07.221Z,31.15
2022-10-21T20:41:37.240Z,32.20
2022-10-21T20:44:05.998Z,35.50
2022-10-21T20:46:35.205Z,38.15
2022-10-21T20:49:04.125Z,30.95
2022-10-21T20:51:31.158Z,31.88
2022-10-21T20:54:01.882Z,35.75
2022-10-21T20:56:30.766Z,34.50
2022-10-21T20:58:57.980Z,36.65
2022-10-21T21:01:28.038Z,31.35
2022-10-21T21:03:57.361Z,31.17
2022-10-21T21:06:24.529Z,31.20
2022-10-21T21:09:14.692Z,34.25
2022-10-21T21:11:38.582Z,33.20
2022-10-21T21:14:05.437Z,37.08
2022-10-21T21:16:32.048Z,38.05
2022-10-21T21:19:03.298Z,32.85
2022-10-21T21:21:32.102Z,36.85
2022-10-21T21:23:58.733Z,35.22
2022-10-21T21:26:28.774Z,35.85
2022-10-21T21:28:55.577Z,35.03
2022-10-21T21:31:24.531Z,33.85
2022-10-21T21:33:51.531Z,35.20
2022-10-21T21:36:20.465Z,34.15
2022-10-21T21:38:47.578Z,37.90
2022-10-21T21:41:16.597Z,31.95
2022-10-21T21:43:47.824Z,35.58
2022-10-21T21:46:22.729Z,35.83
2022-10-21T21:48:54.874Z,40.03
2022-10-21T21:51:24.067Z,35.03
2022-10-21T21:53:51.024Z,33.78
2022-10-21T21:56:19.394Z,36.53
2022-10-21T21:58:51.293Z,38.38
2022-10-21T22:01:20.745Z,33.70
2022-10-21T22:03:49.237Z,33.85
2022-10-21T22:06:18.077Z,33.80
2022-10-21T22:08:45.771Z,37.80
2022-10-21T22:11:17.186Z,37.90
2022-10-21T22:13:47.327Z,34.70
2022-10-21T22:16:16.102Z,44.08
2022-10-21T22:18:43.227Z,39.95
2022-10-21T22:21:16.628Z,32.38
2022-10-21T22:23:44.503Z,38.13
2022-10-21T22:26:12.581Z,30.92
2022-10-21T22:28:39.614Z,33.30
2022-10-21T22:31:08.969Z,33.53
2022-10-21T22:33:35.827Z,37.15
2022-10-21T22:36:03.390Z,35.53
2022-10-21T22:38:30.015Z,33.70
2022-10-21T22:40:58.807Z,32.97
2022-10-21T22:43:26.260Z,33.28
2022-10-21T22:45:57.600Z,33.65
2022-10-21T22:48:36.499Z,37.95
2022-10-21T22:51:03.345Z,36.08
2022-10-21T22:53:29.945Z,31.30
2022-10-21T22:55:56.525Z,41.05
2022-10-21T22:58:23.302Z,36.42
2022-10-21T23:00:51.217Z,36.13
2022-10-21T23:03:19.463Z,39.17
2022-10-21T23:05:48.870Z,38.35
2022-10-21T23:08:17.702Z,37.90
2022-10-21T23:10:46.679Z,43.55
2022-10-21T23:13:13.263Z,31.88
2022-10-21T23:15:40.031Z,35.92
2022-10-21T23:18:06.616Z,37.75
2022-10-21T23:20:33.213Z,39.72
2022-10-21T23:23:00.104Z,34.67
2022-10-21T23:25:27.158Z,36.47
2022-10-21T23:27:54.518Z,30.00
2022-10-21T23:30:21.189Z,33.15
2022-10-21T23:32:47.831Z,34.10
2022-10-21T23:35:15.873Z,36.50
2022-10-21T23:37:43.266Z,39.72
2022-10-21T23:40:10.945Z,42.75
2022-10-21T23:42:41.910Z,34.15
2022-10-21T23:45:11.202Z,36.65
2022-10-21T23:47:39.285Z,43.50
2022-10-21T23:50:09.302Z,33.70
2022-10-21T23:52:36.515Z,31.48
2022-10-21T23:55:05.974Z,36.40
2022-10-21T23:57:32.548Z,36.28
2022-10-21T23:59:59.145Z,38.25
